Terminal Aerodrome Forecast
Issued by NWS

Current Version | Previous Version | Text Only | Print | Product List | Glossary On
Versions: 1 2 3 4 5 6 7 8 9 10 11 12 13
000
FTUS42 KGSP 281132
TAFAND
TAF
KAND 281132Z 2812/2912 06006KT P6SM BKN013
      TEMPO 2812/2816 SCT013
     FM281600 07008KT P6SM SCT250
     FM282300 09004KT P6SM FEW250
     FM290900 00000KT P6SM SCT017
     FM291100 00000KT P6SM SCT005=

USA.gov is the U.S. government's official web portal to all federal, state and local government web resources and services.